Time;durP1;ratioP1;P1;durP2;ratioP2;P2;SDS_P1;SDS_P2;PMS_P1;PMS_P2;Temp;Humidity;BMP_temperature;BMP_pressure;BME280_temperature;BME280_humidity;BME280_pressure;Samples;Min_cycle;Max_cycle;Signal;HPM_P1;HPM_P2
2023/09/02 00:00:01;;;;;;;;;3.00;3.00;;;;;-143.90;84.87;74533.44;4919783;28;102333;-75
2023/09/02 00:02:28;;;;;;;;;3.00;3.00;;;;;-143.90;84.84;74527.25;4901895;28;102629;-75
2023/09/02 00:04:55;;;;;;;;;2.67;2.67;;;;;-143.90;86.24;74535.50;4918390;28;102495;-74
2023/09/02 00:07:21;;;;;;;;;1.33;1.00;;;;;-143.90;86.00;74535.50;4926384;28;104501;-73
2023/09/02 00:09:48;;;;;;;;;2.00;2.00;;;;;-143.90;86.15;74533.44;4903542;28;102126;-74
2023/09/02 00:12:15;;;;;;;;;2.67;2.67;;;;;-143.90;86.25;74531.38;4897035;28;103509;-75
2023/09/02 00:14:41;;;;;;;;;2.00;2.00;;;;;-143.90;85.95;74531.38;4916575;28;102137;-74
2023/09/02 00:17:08;;;;;;;;;3.00;3.00;;;;;-143.90;86.54;74527.25;4923131;28;104239;-74
2023/09/02 00:19:35;;;;;;;;;3.00;2.00;;;;;-143.90;85.97;74527.25;4929427;28;102063;-74
2023/09/02 00:22:02;;;;;;;;;2.00;2.00;;;;;-143.90;86.07;74537.56;4907445;28;101887;-75
2023/09/02 00:24:28;;;;;;;;;2.33;2.33;;;;;-143.90;85.98;74539.66;4909491;28;103218;-75
2023/09/02 00:26:55;;;;;;;;;1.67;1.67;;;;;-143.90;86.46;74537.56;4905691;28;104329;-75
2023/09/02 00:29:21;;;;;;;;;2.00;2.00;;;;;-143.90;86.54;74539.66;4923005;28;102011;-75
2023/09/02 00:31:48;;;;;;;;;2.33;2.33;;;;;-143.90;86.23;74545.84;4904776;28;102304;-75
2023/09/02 00:34:15;;;;;;;;;1.00;1.00;;;;;-143.90;87.17;74537.56;4933797;28;102539;-74
2023/09/02 00:36:41;;;;;;;;;3.00;3.00;;;;;-143.90;87.13;74545.84;4911581;28;104375;-74
2023/09/02 00:39:08;;;;;;;;;1.67;1.67;;;;;-143.90;86.74;74539.66;4923256;28;102396;-74
2023/09/02 00:41:49;;;;;;;;;3.00;3.00;;;;;-143.90;87.84;74541.72;4910794;28;102301;-75
2023/09/02 00:44:15;;;;;;;;;8.33;8.00;;;;;-143.90;89.04;74556.19;4926546;28;101993;-75
2023/09/02 00:46:42;;;;;;;;;7.33;6.00;;;;;-143.90;89.34;74560.31;4912935;28;104161;-75
2023/09/02 00:49:09;;;;;;;;;4.00;3.33;;;;;-143.90;89.74;74560.31;4922728;28;102183;-74
2023/09/02 00:51:36;;;;;;;;;3.67;3.33;;;;;-143.90;90.67;74562.38;4923919;28;102036;-74
2023/09/02 00:54:02;;;;;;;;;4.67;3.33;;;;;-143.90;90.27;74556.19;4925059;28;102082;-74
2023/09/02 00:56:31;;;;;;;;;3.00;3.00;;;;;-143.90;91.24;74562.38;4910946;28;108854;-75
2023/09/02 00:59:03;;;;;;;;;3.00;3.00;;;;;-143.90;90.81;74560.31;4898541;28;102621;-75
2023/09/02 01:01:33;;;;;;;;;5.33;5.33;;;;;-143.90;89.65;74552.03;4919243;28;101971;-75
2023/09/02 01:04:03;;;;;;;;;5.00;4.00;;;;;-143.90;90.57;74556.19;4911516;28;102367;-75
2023/09/02 01:06:30;;;;;;;;;4.33;4.33;;;;;-143.90;90.74;74558.25;4922020;28;113277;-74
2023/09/02 01:08:57;;;;;;;;;4.33;3.33;;;;;-143.90;92.47;74568.59;4919802;28;102230;-74
2023/09/02 01:11:24;;;;;;;;;7.00;7.00;;;;;-143.90;92.74;74576.84;4903585;28;102392;-75
2023/09/02 01:13:50;;;;;;;;;5.00;5.00;;;;;-143.90;93.08;74578.91;4916923;28;103248;-75
2023/09/02 01:16:17;;;;;;;;;4.00;4.00;;;;;-143.90;93.10;74581.00;4902182;28;106012;-75
2023/09/02 01:18:45;;;;;;;;;2.67;2.33;;;;;-143.90;92.70;74595.47;4926469;28;102765;-75
2023/09/02 01:21:15;;;;;;;;;2.33;2.00;;;;;-143.90;93.01;74597.53;4921288;28;102440;-75
2023/09/02 01:23:51;;;;;;;;;4.00;4.00;;;;;-143.90;92.40;74599.59;4909925;28;102447;-75
2023/09/02 01:26:38;;;;;;;;;5.33;5.33;;;;;-143.90;92.47;74593.38;4931102;28;103625;-75
2023/09/02 01:29:09;;;;;;;;;7.33;7.00;;;;;-143.90;92.86;74587.19;4924638;28;102409;-76
2023/09/02 01:31:37;;;;;;;;;9.00;8.33;;;;;-143.90;95.58;74609.94;4927284;28;102151;-74
2023/09/02 01:34:07;;;;;;;;;8.00;8.00;;;;;-143.90;97.55;74614.06;4931801;28;103383;-75
2023/09/02 01:36:35;;;;;;;;;4.00;4.00;;;;;-143.90;96.62;74607.84;4920441;28;109792;-74
2023/09/02 01:39:02;;;;;;;;;4.00;4.00;;;;;-143.90;96.97;74609.94;4892493;28;102428;-74
2023/09/02 01:41:30;;;;;;;;;4.00;3.33;;;;;-143.90;96.79;74609.94;4926365;28;103708;-75
2023/09/02 01:43:59;;;;;;;;;3.00;3.00;;;;;-143.90;96.27;74609.94;4912051;28;102317;-74
2023/09/02 01:46:26;;;;;;;;;2.00;2.00;;;;;-143.90;96.29;74605.78;4909314;28;104126;-76
2023/09/02 01:48:52;;;;;;;;;2.00;2.00;;;;;-143.90;96.06;74603.72;4910572;28;102202;-76
2023/09/02 01:51:20;;;;;;;;;1.00;1.00;;;;;-143.90;96.57;74597.53;4929823;28;102368;-76
2023/09/02 01:53:46;;;;;;;;;3.00;3.00;;;;;-143.90;95.75;74581.00;4922443;28;102292;-76
2023/09/02 01:56:14;;;;;;;;;4.00;3.67;;;;;-143.90;96.50;74597.53;4910862;28;103958;-76
2023/09/02 01:58:41;;;;;;;;;3.00;2.67;;;;;-143.90;97.15;74605.78;4927285;28;102239;-76
2023/09/02 02:01:07;;;;;;;;;4.33;4.00;;;;;-143.90;97.13;74603.72;4913449;28;102269;-75
2023/09/02 02:03:40;;;;;;;;;3.00;2.00;;;;;-143.90;96.83;74605.78;4913478;28;104290;-75
2023/09/02 02:06:10;;;;;;;;;3.00;2.00;;;;;-143.90;96.75;74607.84;4893866;28;108417;-76
2023/09/02 02:08:51;;;;;;;;;8.00;7.00;;;;;-143.90;96.66;74601.66;4928157;28;102408;-74
2023/09/02 02:11:20;;;;;;;;;6.00;5.33;;;;;-143.90;96.45;74609.94;4929763;28;101944;-75
2023/09/02 02:13:49;;;;;;;;;5.00;4.00;;;;;-143.90;97.22;74616.13;4921647;28;101957;-76
2023/09/02 02:16:16;;;;;;;;;3.00;2.00;;;;;-143.90;97.39;74616.13;4913289;28;104149;-75
2023/09/02 02:18:43;;;;;;;;;2.00;1.33;;;;;-143.90;97.71;74622.34;4929625;28;101870;-76
2023/09/02 02:21:10;;;;;;;;;3.00;3.00;;;;;-143.90;98.43;74622.34;4919527;28;102238;-76
2023/09/02 02:23:37;;;;;;;;;2.00;2.00;;;;;-143.90;97.79;74614.06;4912880;28;103246;-76
2023/09/02 02:26:04;;;;;;;;;3.00;3.00;;;;;-143.90;97.97;74609.94;4929686;28;104041;-76
2023/09/02 02:28:31;;;;;;;;;2.33;2.00;;;;;-143.90;98.15;74609.94;4907104;28;102822;-76
2023/09/02 02:30:59;;;;;;;;;4.00;4.00;;;;;-143.90;98.77;74622.34;4928487;28;103103;-75
2023/09/02 02:33:25;;;;;;;;;5.00;4.00;;;;;-143.90;99.25;74628.53;4913478;28;102371;-75
2023/09/02 02:35:52;;;;;;;;;4.33;4.33;;;;;-143.90;99.07;74618.19;4907322;28;104333;-75
2023/09/02 02:38:19;;;;;;;;;3.00;3.00;;;;;-143.90;99.05;74609.94;4922314;28;102270;-76
2023/09/02 02:40:46;;;;;;;;;3.33;3.33;;;;;-143.90;98.48;74605.78;4927164;28;103332;-75
2023/09/02 02:43:12;;;;;;;;;2.00;2.00;;;;;-143.90;98.81;74609.94;4931393;28;102471;-75
2023/09/02 02:45:41;;;;;;;;;4.00;4.00;;;;;-143.90;98.16;74605.78;4914372;28;103967;-75
2023/09/02 02:48:15;;;;;;;;;3.00;3.00;;;;;-143.90;97.83;74601.66;4910587;28;103572;-76
2023/09/02 02:50:41;;;;;;;;;3.00;3.00;;;;;-143.90;97.95;74601.66;4922718;28;103446;-76
2023/09/02 02:53:08;;;;;;;;;4.00;3.00;;;;;-143.90;97.81;74597.53;4928314;28;103717;-76
2023/09/02 02:55:35;;;;;;;;;2.00;2.00;;;;;-143.90;98.60;74605.78;4932012;28;103433;-76
2023/09/02 02:58:01;;;;;;;;;4.00;3.33;;;;;-143.90;99.39;74607.84;4925260;28;102078;-76
2023/09/02 03:00:28;;;;;;;;;3.67;3.00;;;;;-143.90;98.99;74601.66;4908106;28;102465;-76
2023/09/02 03:02:54;;;;;;;;;3.00;3.00;;;;;-143.90;98.49;74595.47;4925886;28;102850;-75
2023/09/02 03:05:21;;;;;;;;;3.67;3.00;;;;;-143.90;98.44;74597.53;4922560;28;103606;-76
2023/09/02 03:07:48;;;;;;;;;2.00;2.00;;;;;-143.90;98.62;74603.72;4933032;28;102126;-76
2023/09/02 03:10:15;;;;;;;;;3.00;3.00;;;;;-143.90;98.49;74589.25;4934198;28;102132;-74
2023/09/02 03:12:42;;;;;;;;;2.00;2.00;;;;;-143.90;98.28;74589.25;4925042;28;103497;-75
2023/09/02 03:15:09;;;;;;;;;2.00;2.00;;;;;-143.90;98.43;74587.19;4918726;28;104131;-76
2023/09/02 03:17:35;;;;;;;;;2.00;2.00;;;;;-143.90;98.30;74585.13;4925103;28;102346;-76
2023/09/02 03:20:03;;;;;;;;;1.00;1.00;;;;;-143.90;97.88;74581.00;4929255;28;102358;-75
2023/09/02 03:22:30;;;;;;;;;1.33;1.00;;;;;-143.90;98.21;74585.13;4920716;28;102323;-76
2023/09/02 03:24:57;;;;;;;;;2.67;2.67;;;;;-143.90;97.46;74587.19;4929779;28;105055;-76
2023/09/02 03:27:23;;;;;;;;;1.33;1.33;;;;;-143.90;97.25;74576.84;4930615;28;103082;-76
2023/09/02 03:29:50;;;;;;;;;3.67;3.67;;;;;-143.90;97.87;74591.31;4912540;28;102162;-75
2023/09/02 03:32:17;;;;;;;;;3.00;3.00;;;;;-143.90;98.07;74589.25;4922907;28;102488;-75
2023/09/02 03:34:43;;;;;;;;;1.00;1.00;;;;;-143.90;98.54;74585.13;4931662;28;103662;-75
2023/09/02 03:37:10;;;;;;;;;1.00;1.00;;;;;-143.90;98.24;74589.25;4918764;28;103651;-75
2023/09/02 03:39:37;;;;;;;;;5.00;5.00;;;;;-143.90;98.48;74587.19;4919252;28;102250;-75
2023/09/02 03:42:04;;;;;;;;;2.33;2.33;;;;;-143.90;98.74;74593.38;4924525;28;102290;-76
2023/09/02 03:44:31;;;;;;;;;2.00;2.00;;;;;-143.90;98.85;74587.19;4926086;28;108737;-76
2023/09/02 03:46:58;;;;;;;;;2.33;2.00;;;;;-143.90;98.03;74597.53;4918062;28;102378;-76
2023/09/02 03:49:25;;;;;;;;;3.00;2.67;;;;;-143.90;97.81;74595.47;4917225;28;102004;-76
2023/09/02 03:51:51;;;;;;;;;2.00;2.00;;;;;-143.90;97.48;74597.53;4926452;28;102268;-76
2023/09/02 03:54:18;;;;;;;;;3.00;2.00;;;;;-143.90;97.06;74605.78;4924705;28;103552;-76
2023/09/02 03:56:45;;;;;;;;;2.33;2.00;;;;;-143.90;97.19;74599.59;4910513;28;104697;-76
2023/09/02 03:59:11;;;;;;;;;5.33;4.67;;;;;-143.90;97.76;74622.34;4920887;28;102424;-76
2023/09/02 04:01:38;;;;;;;;;2.00;2.00;;;;;-143.90;98.09;74618.19;4932477;28;102411;-75
2023/09/02 04:04:05;;;;;;;;;1.00;1.00;;;;;-143.90;98.27;74618.19;4914838;28;104073;-76
2023/09/02 04:06:32;;;;;;;;;1.00;1.00;;;;;-143.90;98.13;74614.06;4914581;28;102020;-75
2023/09/02 04:08:58;;;;;;;;;2.33;2.33;;;;;-143.90;97.79;74620.25;4923562;28;102217;-75
2023/09/02 04:11:25;;;;;;;;;1.00;1.00;;;;;-143.90;97.46;74612.00;4925459;28;102836;-75
2023/09/02 04:13:52;;;;;;;;;2.67;2.00;;;;;-143.90;98.03;74618.19;4907388;28;104491;-75
2023/09/02 04:16:18;;;;;;;;;3.00;3.00;;;;;-143.90;97.81;74622.34;4928271;28;103059;-76
2023/09/02 04:18:45;;;;;;;;;4.00;4.00;;;;;-143.90;98.29;74630.59;4927454;28;102233;-75
2023/09/02 04:21:12;;;;;;;;;2.67;2.00;;;;;-143.90;98.96;74640.94;4943972;28;103288;-76
2023/09/02 04:23:39;;;;;;;;;1.33;1.33;;;;;-143.90;98.88;74638.88;4930851;28;104137;-76
2023/09/02 04:26:06;;;;;;;;;3.00;3.00;;;;;-143.90;98.77;74645.06;4933383;28;102097;-76
2023/09/02 04:28:33;;;;;;;;;8.00;7.00;;;;;-143.90;99.10;74651.28;4938442;28;102083;-76
2023/09/02 04:30:59;;;;;;;;;5.00;5.00;;;;;-143.90;99.16;74649.19;4936179;28;102400;-76
2023/09/02 04:33:26;;;;;;;;;5.00;2.00;;;;;-143.90;98.67;74647.13;4920077;28;105076;-76
2023/09/02 04:35:53;;;;;;;;;3.33;3.33;;;;;-143.90;97.72;74651.28;4933938;28;101942;-76
2023/09/02 04:38:20;;;;;;;;;4.00;4.00;;;;;-143.90;97.76;74647.13;4913042;28;103513;-76
2023/09/02 04:40:47;;;;;;;;;2.67;2.67;;;;;-143.90;97.81;74638.88;4915401;28;102994;-75
2023/09/02 04:43:14;;;;;;;;;3.00;2.00;;;;;-143.90;97.48;74638.88;4933562;28;104992;-75
2023/09/02 04:45:42;;;;;;;;;2.00;1.67;;;;;-143.90;97.04;74643.00;4914337;28;102496;-75
2023/09/02 04:48:10;;;;;;;;;3.00;3.00;;;;;-143.90;96.90;74634.72;4930151;28;102052;-75
2023/09/02 04:50:38;;;;;;;;;1.67;1.67;;;;;-143.90;97.11;74638.88;4932939;28;102045;-76
2023/09/02 04:53:05;;;;;;;;;2.00;1.67;;;;;-143.90;97.27;74634.72;4931000;28;107591;-76
2023/09/02 04:55:31;;;;;;;;;1.00;1.00;;;;;-143.90;96.47;74634.72;4914423;28;102407;-76
2023/09/02 04:57:58;;;;;;;;;2.00;2.00;;;;;-143.90;96.65;74645.06;4908165;28;102295;-76
2023/09/02 05:00:28;;;;;;;;;1.00;1.00;;;;;-143.90;95.91;74638.88;4931065;28;103663;-76
2023/09/02 05:02:55;;;;;;;;;1.00;1.00;;;;;-143.90;96.08;74643.00;4929935;28;104228;-76
2023/09/02 05:05:23;;;;;;;;;2.00;1.33;;;;;-143.90;95.83;74651.28;4931545;28;103530;-76
2023/09/02 05:07:49;;;;;;;;;1.33;1.33;;;;;-143.90;96.27;74647.13;4930857;28;103782;-76
2023/09/02 05:10:17;;;;;;;;;2.00;2.00;;;;;-143.90;95.21;74647.13;4930147;28;102126;-75
2023/09/02 05:12:43;;;;;;;;;2.00;2.00;;;;;-143.90;95.52;74647.13;4928621;28;104392;-75
2023/09/02 05:15:10;;;;;;;;;1.00;0.00;;;;;-143.90;95.58;74640.94;4932550;28;102544;-76
2023/09/02 05:17:37;;;;;;;;;2.00;2.00;;;;;-143.90;95.85;74640.94;4932891;28;102286;-76
2023/09/02 05:20:05;;;;;;;;;1.00;1.00;;;;;-143.90;96.10;74636.81;4922800;28;102429;-76
2023/09/02 05:22:32;;;;;;;;;2.67;2.00;;;;;-143.90;96.57;74638.88;4930103;28;104577;-76
2023/09/02 05:24:59;;;;;;;;;2.00;2.00;;;;;-143.90;96.87;74630.59;4923204;28;102548;-76
2023/09/02 05:27:26;;;;;;;;;3.00;2.00;;;;;-143.90;96.80;74622.34;4939954;28;102011;-77
2023/09/02 05:29:53;;;;;;;;;3.00;3.00;;;;;-143.90;96.75;74616.13;4940381;28;102592;-78
2023/09/02 05:32:19;;;;;;;;;2.00;2.00;;;;;-143.90;96.14;74620.25;4928992;28;102945;-77
2023/09/02 05:34:46;;;;;;;;;1.67;1.33;;;;;-143.90;95.85;74626.47;4931673;28;103771;-74
2023/09/02 05:37:13;;;;;;;;;2.00;2.00;;;;;-143.90;95.85;74628.53;4928069;28;102315;-76
2023/09/02 05:39:40;;;;;;;;;2.67;2.00;;;;;-143.90;95.07;74630.59;4923714;28;102583;-76
2023/09/02 05:42:07;;;;;;;;;1.00;1.00;;;;;-143.90;94.46;74628.53;4924714;28;104425;-76
2023/09/02 05:44:37;;;;;;;;;1.00;1.00;;;;;-143.90;94.12;74634.72;4932379;28;102922;-76
2023/09/02 05:47:04;;;;;;;;;1.67;1.33;;;;;-143.90;94.16;74638.88;4915860;28;102365;-77
2023/09/02 05:49:36;;;;;;;;;1.00;0.67;;;;;-143.90;93.74;74638.88;4925443;28;103357;-76
2023/09/02 05:52:05;;;;;;;;;3.00;2.00;;;;;-143.90;93.89;74647.13;4925635;28;104207;-75
2023/09/02 05:54:32;;;;;;;;;3.00;3.00;;;;;-143.90;94.07;74643.00;4921503;28;104052;-76
2023/09/02 05:56:59;;;;;;;;;5.00;4.00;;;;;-143.90;93.58;74645.06;4934671;28;102659;-75
2023/09/02 05:59:25;;;;;;;;;4.00;3.00;;;;;-143.90;94.24;74647.13;4928074;28;102245;-75
2023/09/02 06:01:54;;;;;;;;;3.00;3.00;;;;;-143.90;94.12;74647.13;4938153;28;104016;-76
2023/09/02 06:04:21;;;;;;;;;4.00;3.00;;;;;-143.90;93.88;74647.13;4930877;28;102277;-76
2023/09/02 06:06:47;;;;;;;;;2.33;2.33;;;;;-143.90;94.09;74640.94;4935475;28;102293;-76
2023/09/02 06:09:14;;;;;;;;;4.00;4.00;;;;;-143.90;93.73;74638.88;4926858;28;102198;-75
2023/09/02 06:11:41;;;;;;;;;4.67;4.67;;;;;-143.90;93.72;74638.88;4931925;28;104194;-75
2023/09/02 06:14:07;;;;;;;;;3.67;3.67;;;;;-143.90;93.54;74630.59;4936039;28;102015;-76
2023/09/02 06:16:34;;;;;;;;;3.00;2.00;;;;;-143.90;93.89;74626.47;4936334;28;102152;-76
2023/09/02 06:19:00;;;;;;;;;3.00;3.00;;;;;-143.90;93.03;74618.19;4938521;28;103003;-76
2023/09/02 06:21:27;;;;;;;;;1.00;1.00;;;;;-143.90;93.70;74630.59;4930208;28;104141;-76
2023/09/02 06:23:54;;;;;;;;;3.00;3.00;;;;;-143.90;93.98;74622.34;4935419;28;102327;-76
2023/09/02 06:26:20;;;;;;;;;3.33;3.00;;;;;-143.90;93.83;74622.34;4935209;28;102193;-76
2023/09/02 06:28:47;;;;;;;;;2.00;2.00;;;;;-143.90;93.60;74616.13;4951692;28;102219;-76
2023/09/02 06:31:13;;;;;;;;;4.67;3.33;;;;;-143.90;93.43;74618.19;4934720;28;104118;-76
2023/09/02 06:33:40;;;;;;;;;4.33;4.33;;;;;-143.90;93.06;74603.72;4945217;28;102075;-75
2023/09/02 06:36:11;;;;;;;;;2.00;2.00;;;;;-143.90;93.08;74591.31;4934758;28;102329;-75
2023/09/02 06:38:38;;;;;;;;;2.00;2.00;;;;;-143.90;92.88;74581.00;4940601;28;102092;-75
2023/09/02 06:41:14;;;;;;;;;1.00;1.00;;;;;-143.90;91.15;74570.66;4935699;28;108160;-76
2023/09/02 06:43:42;;;;;;;;;3.00;3.00;;;;;-143.90;91.86;74591.31;4930883;28;102130;-76
2023/09/02 06:46:14;;;;;;;;;3.00;2.33;;;;;-143.90;91.46;74587.19;4945484;28;101919;-75
2023/09/02 06:48:40;;;;;;;;;2.00;2.00;;;;;-143.90;90.83;74589.25;4933167;28;103062;-76
2023/09/02 06:51:07;;;;;;;;;1.33;1.33;;;;;-143.90;90.24;74585.13;4937595;28;102963;-76
2023/09/02 06:53:34;;;;;;;;;1.00;1.00;;;;;-143.90;89.94;74585.13;4935018;28;105020;-76
2023/09/02 06:56:05;;;;;;;;;2.33;2.00;;;;;-143.90;89.64;74578.91;4938466;28;102070;-75
2023/09/02 06:58:31;;;;;;;;;2.33;1.67;;;;;-143.90;90.63;74597.53;4940863;28;102007;-76
2023/09/02 07:00:58;;;;;;;;;1.00;1.00;;;;;-143.90;90.60;74585.13;4939787;28;104218;-76
2023/09/02 07:03:25;;;;;;;;;1.33;1.00;;;;;-143.90;89.20;74607.84;4939011;28;102063;-76
2023/09/02 07:05:51;;;;;;;;;1.33;1.00;;;;;-143.90;91.04;74599.59;4937408;28;102002;-75
2023/09/02 07:08:18;;;;;;;;;1.00;1.00;;;;;-143.90;91.98;74612.00;4939940;28;101989;-75
2023/09/02 07:10:45;;;;;;;;;2.00;2.00;;;;;-143.90;90.96;74651.28;4938095;28;104148;-75
2023/09/02 07:13:11;;;;;;;;;1.33;1.00;;;;;-143.90;91.22;74643.00;4939519;28;101944;-74
2023/09/02 07:15:38;;;;;;;;;0.33;0.33;;;;;-143.90;91.71;74628.53;4940424;28;102088;-75
2023/09/02 07:18:04;;;;;;;;;0.00;0.00;;;;;-143.90;90.92;74630.59;4940011;28;102022;-76
2023/09/02 07:20:35;;;;;;;;;0.67;0.67;;;;;-143.90;90.42;74622.34;4938309;28;105059;-76
2023/09/02 07:23:02;;;;;;;;;0.00;0.00;;;;;-143.90;91.30;74634.72;4936846;28;103566;-75
2023/09/02 07:25:29;;;;;;;;;0.33;0.33;;;;;-143.90;92.45;74638.88;4932239;28;101886;-76
2023/09/02 07:27:55;;;;;;;;;0.00;0.00;;;;;-143.90;92.30;74622.34;4941525;28;101973;-74
2023/09/02 07:30:22;;;;;;;;;1.00;0.00;;;;;-143.90;91.33;74616.13;4931446;28;104212;-75
2023/09/02 07:32:48;;;;;;;;;0.00;0.00;;;;;-143.90;90.41;74595.47;4936201;28;102009;-75
2023/09/02 07:35:15;;;;;;;;;0.00;0.00;;;;;-143.90;88.90;74578.91;4908308;28;101927;-75
2023/09/02 07:37:42;;;;;;;;;0.00;0.00;;;;;-143.90;89.54;74576.84;4937739;28;102499;-75
2023/09/02 07:40:09;;;;;;;;;1.00;1.00;;;;;-143.90;89.51;74581.00;4934915;28;104113;-75
2023/09/02 07:42:35;;;;;;;;;1.00;1.00;;;;;-143.90;89.70;74576.84;4933082;28;102231;-75
2023/09/02 07:45:02;;;;;;;;;1.00;1.00;;;;;-143.90;88.49;74568.59;4927027;28;102310;-76
2023/09/02 07:47:29;;;;;;;;;2.00;2.00;;;;;-143.90;88.90;74589.25;4941778;28;101962;-75
2023/09/02 07:49:55;;;;;;;;;2.00;2.00;;;;;-143.90;88.16;74605.78;4918082;28;105033;-75
2023/09/02 07:52:24;;;;;;;;;2.00;2.00;;;;;-143.90;87.30;74591.31;4934660;28;101873;-74
2023/09/02 07:54:50;;;;;;;;;1.67;1.67;;;;;-143.90;86.29;74585.13;4942923;28;102044;-75
2023/09/02 07:57:17;;;;;;;;;2.33;2.33;;;;;-143.90;86.38;74581.00;4933258;28;102372;-76
2023/09/02 07:59:44;;;;;;;;;1.00;1.00;;;;;-143.90;86.57;74574.78;4939775;28;104300;-75
2023/09/02 08:02:10;;;;;;;;;0.00;0.00;;;;;-143.90;85.17;74560.31;4932502;28;101929;-75
2023/09/02 08:04:37;;;;;;;;;1.33;1.33;;;;;-143.90;85.75;74539.66;4930351;28;101968;-75
2023/09/02 08:07:04;;;;;;;;;2.00;1.00;;;;;-143.90;85.11;74531.38;4929536;28;101939;-75
2023/09/02 08:09:30;;;;;;;;;1.00;1.00;;;;;-143.90;84.38;74518.97;4935425;28;104084;-75
2023/09/02 08:11:57;;;;;;;;;1.00;1.00;;;;;-143.90;84.12;74498.31;4936969;28;102349;-74
2023/09/02 08:14:24;;;;;;;;;2.00;2.00;;;;;-143.90;81.53;74506.56;4940782;28;102008;-74
2023/09/02 08:16:50;;;;;;;;;3.00;3.00;;;;;-143.90;83.71;74506.56;4936624;28;102421;-74
2023/09/02 08:19:17;;;;;;;;;5.00;5.00;;;;;-143.90;82.69;74506.56;4945099;28;104461;-73
2023/09/02 08:21:44;;;;;;;;;4.67;4.00;;;;;-143.90;83.54;74533.44;4913868;28;102282;-71
2023/09/02 08:24:11;;;;;;;;;4.67;4.67;;;;;-143.90;82.72;74516.91;4911953;28;102256;-74
2023/09/02 08:26:40;;;;;;;;;4.33;4.33;;;;;-143.90;83.02;74496.25;4913661;28;102067;-74
2023/09/02 08:29:07;;;;;;;;;3.33;3.33;;;;;-143.90;82.01;74481.78;4914728;28;104048;-74
2023/09/02 08:31:33;;;;;;;;;4.00;3.00;;;;;-143.90;82.02;74477.63;4916224;28;102192;-74
2023/09/02 08:34:00;;;;;;;;;3.00;3.00;;;;;-143.90;79.86;74471.44;4894551;28;102560;-75
2023/09/02 08:36:27;;;;;;;;;3.67;3.00;;;;;-143.90;79.45;74463.16;4910688;28;102021;-74
2023/09/02 08:38:56;;;;;;;;;4.67;4.67;;;;;-143.90;78.86;74448.69;4920592;28;103822;-75
2023/09/02 08:41:30;;;;;;;;;3.00;2.67;;;;;-143.90;80.71;74436.28;4913403;28;101780;-75
2023/09/02 08:44:02;;;;;;;;;4.00;3.00;;;;;-143.90;79.87;74407.34;4914273;28;101793;-76
2023/09/02 08:46:31;;;;;;;;;3.00;3.00;;;;;-143.90;78.17;74394.94;4908715;28;102009;-74
2023/09/02 08:48:59;;;;;;;;;2.33;2.33;;;;;-143.90;77.03;74390.81;4913757;28;104583;-73
2023/09/02 08:51:27;;;;;;;;;3.00;3.00;;;;;-143.90;76.39;74413.56;4917680;28;102188;-74
2023/09/02 08:53:56;;;;;;;;;3.00;3.00;;;;;-143.90;76.10;74409.41;4915771;28;102037;-74
2023/09/02 08:56:23;;;;;;;;;6.00;5.00;;;;;-143.90;77.34;74442.50;4908369;28;102047;-74
2023/09/02 08:58:52;;;;;;;;;5.00;5.00;;;;;-143.90;78.34;74450.75;4910108;28;104102;-73
2023/09/02 09:01:21;;;;;;;;;4.33;3.00;;;;;-143.90;78.92;74432.16;4902520;28;103268;-74
2023/09/02 09:03:55;;;;;;;;;3.00;3.00;;;;;-143.90;77.59;74421.81;4913233;28;102063;-75
2023/09/02 09:06:23;;;;;;;;;5.00;4.00;;;;;-143.90;77.27;74411.50;4918526;28;101936;-74
2023/09/02 09:08:52;;;;;;;;;4.33;4.33;;;;;-143.90;76.03;74394.94;4911750;28;103712;-74
2023/09/02 09:11:22;;;;;;;;;5.67;5.00;;;;;-143.90;76.02;74384.63;4916313;28;102432;-74
2023/09/02 09:13:52;;;;;;;;;4.67;4.67;;;;;-143.90;75.11;74376.34;4914279;28;101877;-74
2023/09/02 09:16:24;;;;;;;;;4.33;4.00;;;;;-143.90;74.56;74374.28;4911617;28;102928;-77
2023/09/02 09:18:51;;;;;;;;;7.67;7.67;;;;;-143.90;74.55;74397.03;4914835;28;104272;-75
2023/09/02 09:21:18;;;;;;;;;9.67;9.00;;;;;-143.90;75.94;74444.56;4919731;28;102002;-76
2023/09/02 09:23:44;;;;;;;;;10.67;10.67;;;;;-143.90;76.33;74475.56;4921687;28;102136;-73
2023/09/02 09:26:14;;;;;;;;;10.33;8.67;;;;;-143.90;75.33;74498.31;4919754;28;102459;-73
2023/09/02 09:28:51;;;;;;;;;9.67;8.33;;;;;-143.90;75.49;74483.84;4891828;28;108319;-74
2023/09/02 09:31:21;;;;;;;;;4.67;4.00;;;;;-143.90;74.52;74450.75;4927130;28;101785;-75
2023/09/02 09:33:58;;;;;;;;;5.67;5.67;;;;;-143.90;75.61;74421.81;4915222;28;101957;-73
2023/09/02 09:36:27;;;;;;;;;8.00;8.00;;;;;-143.90;75.00;74444.56;4928745;28;102220;-72
2023/09/02 09:39:02;;;;;;;;;9.67;9.00;;;;;-143.90;74.56;74417.69;4927911;28;104395;-74
2023/09/02 09:41:29;;;;;;;;;8.00;8.00;;;;;-143.90;71.62;74436.28;4933591;28;102332;-76
2023/09/02 09:44:12;;;;;;;;;9.67;8.67;;;;;-143.90;72.72;74444.56;4934210;28;103095;-74
2023/09/02 09:46:53;;;;;;;;;7.33;7.00;;;;;-143.90;72.86;74403.22;4934610;28;102364;-73
2023/09/02 09:49:28;;;;;;;;;6.33;5.33;;;;;-143.90;72.65;74372.22;4925375;28;112610;-73
2023/09/02 09:52:01;;;;;;;;;8.33;7.00;;;;;-143.90;71.12;74359.81;4925495;28;102658;-75
2023/09/02 09:54:42;;;;;;;;;8.33;8.33;;;;;-143.90;70.07;74357.75;4918998;28;101866;-76
2023/09/02 09:57:11;;;;;;;;;10.00;9.00;;;;;-143.90;70.48;74374.28;4935717;28;102482;-75
2023/09/02 09:59:38;;;;;;;;;9.67;8.67;;;;;-143.90;71.08;74386.69;4932449;28;104064;-75
2023/09/02 10:02:05;;;;;;;;;14.33;12.33;;;;;-143.90;71.37;74401.16;4927938;28;104074;-76
2023/09/02 10:04:33;;;;;;;;;10.00;9.67;;;;;-143.90;71.69;74390.81;4928805;28;102604;-75
2023/09/02 10:07:01;;;;;;;;;9.00;8.00;;;;;-143.90;72.43;74368.09;4930880;28;102275;-75
2023/09/02 10:09:42;;;;;;;;;10.33;8.67;;;;;-143.90;70.78;74372.22;4925930;28;104127;-76
2023/09/02 10:12:16;;;;;;;;;9.67;9.00;;;;;-143.90;69.35;74353.63;4925801;28;102308;-75
2023/09/02 10:14:46;;;;;;;;;9.33;9.00;;;;;-143.90;68.58;74330.88;4926971;28;102352;-74
2023/09/02 10:17:13;;;;;;;;;8.00;6.33;;;;;-143.90;70.78;74306.06;4937923;28;102109;-74
2023/09/02 10:19:41;;;;;;;;;8.00;7.67;;;;;-143.90;68.03;74283.34;4918943;28;104186;-74
2023/09/02 10:22:08;;;;;;;;;6.67;6.67;;;;;-143.90;66.91;74287.47;4908360;28;103113;-75
2023/09/02 10:24:43;;;;;;;;;7.33;6.67;;;;;-143.90;66.48;74301.94;4916351;28;102473;-74
2023/09/02 10:27:23;;;;;;;;;7.33;6.67;;;;;-143.90;65.66;74285.41;4918012;28;102115;-74
2023/09/02 10:29:56;;;;;;;;;7.67;5.67;;;;;-143.90;67.50;74287.47;4914431;28;109806;-73
2023/09/02 10:32:40;;;;;;;;;6.00;6.00;;;;;-143.90;66.75;74310.22;4910476;28;101944;-74
2023/09/02 10:35:19;;;;;;;;;5.00;4.33;;;;;-143.90;68.07;74312.28;4912757;28;102628;-74
2023/09/02 10:37:52;;;;;;;;;4.67;4.67;;;;;-143.90;66.44;74308.13;4919760;28;102488;-74
2023/09/02 10:40:35;;;;;;;;;7.33;6.00;;;;;-143.90;67.15;74295.75;4912284;28;108543;-74
2023/09/02 10:43:02;;;;;;;;;10.00;9.33;;;;;-143.90;68.35;74304.00;4915763;28;102011;-75
2023/09/02 10:45:30;;;;;;;;;5.00;5.00;;;;;-143.90;65.70;74279.22;4909805;28;101929;-75
2023/09/02 10:47:59;;;;;;;;;7.00;6.67;;;;;-143.90;67.82;74273.00;4907154;28;102083;-72
2023/09/02 10:50:26;;;;;;;;;7.00;7.00;;;;;-143.90;66.48;74250.25;4900521;28;105054;-74
2023/09/02 10:52:53;;;;;;;;;6.67;6.00;;;;;-143.90;66.22;74262.66;4900557;28;101841;-74
2023/09/02 10:56:00;;;;;;;;;5.00;5.00;;;;;-143.90;62.70;74229.59;4917522;28;103079;-74
2023/09/02 10:58:27;;;;;;;;;4.00;4.00;;;;;-143.90;65.32;74208.94;4912391;28;101982;-74
2023/09/02 11:00:53;;;;;;;;;3.00;3.00;;;;;-143.90;61.06;74217.19;4906044;28;104399;-74
2023/09/02 11:03:46;;;;;;;;;2.33;2.33;;;;;-143.90;61.15;74217.19;4911000;28;102110;-72
2023/09/02 11:06:17;;;;;;;;;3.00;3.00;;;;;-143.90;61.97;74223.41;4916892;28;103270;-73
2023/09/02 11:08:49;;;;;;;;;3.00;3.00;;;;;-143.90;63.94;74206.88;4879436;28;102444;-74
2023/09/02 11:11:20;;;;;;;;;3.00;2.33;;;;;-143.90;64.43;74217.19;4917963;28;108926;-73
2023/09/02 11:14:08;;;;;;;;;2.00;2.00;;;;;-143.90;64.44;74260.59;4899596;28;102437;-73